Time;durP1;ratioP1;P1;durP2;ratioP2;P2;SDS_P1;SDS_P2;PMS_P1;PMS_P2;Temp;Humidity;BMP_temperature;BMP_pressure;BME280_temperature;BME280_humidity;BME280_pressure;Samples;Min_cycle;Max_cycle;Signal;HPM_P1;HPM_P2
2020/12/13 00:01:56;;;;;;;5.53;5.13;;;8.80;49.10;;;;;;10436248;28;20258;-70
2020/12/13 00:06:58;;;;;;;5.93;5.53;;;8.80;49.00;;;;;;10434539;28;20232;-70
2020/12/13 00:12:03;;;;;;;6.00;5.50;;;8.80;49.10;;;;;;10429771;28;20312;-71
2020/12/13 00:17:05;;;;;;;6.03;5.53;;;8.80;49.20;;;;;;10439785;28;20638;-71
2020/12/13 00:22:08;;;;;;;6.37;5.10;;;8.80;49.20;;;;;;10441847;28;20229;-70
2020/12/13 00:27:13;;;;;;;6.20;5.73;;;8.70;49.10;;;;;;10439962;28;21996;-70
2020/12/13 00:32:15;;;;;;;5.70;5.20;;;8.70;49.50;;;;;;10441577;28;20237;-70
2020/12/13 00:37:17;;;;;;;6.60;6.07;;;8.70;49.20;;;;;;10437957;28;20248;-70
2020/12/13 00:42:20;;;;;;;6.03;5.53;;;8.70;49.20;;;;;;10429041;28;20236;-70
2020/12/13 00:47:23;;;;;;;6.23;5.73;;;8.70;49.50;;;;;;10435983;28;20308;-70
2020/12/13 00:52:25;;;;;;;5.67;5.27;;;8.70;49.30;;;;;;10434744;28;20236;-70
2020/12/13 00:57:28;;;;;;;5.53;5.13;;;8.70;49.30;;;;;;10441187;28;20236;-70
2020/12/13 01:02:31;;;;;;;5.83;5.40;;;8.70;49.40;;;;;;10436119;28;20233;-70
2020/12/13 01:07:33;;;;;;;6.03;5.53;;;8.70;49.20;;;;;;10440282;28;20283;-70
2020/12/13 01:12:36;;;;;;;6.03;5.63;;;8.80;49.10;;;;;;10427718;28;20256;-70
2020/12/13 01:17:38;;;;;;;5.87;5.40;;;8.80;49.30;;;;;;10436151;28;20300;-70
2020/12/13 01:22:41;;;;;;;5.53;5.13;;;8.80;49.10;;;;;;10437590;28;20641;-70
2020/12/13 01:27:44;;;;;;;5.50;5.03;;;8.80;49.00;;;;;;10428314;28;20592;-70
2020/12/13 01:32:46;;;;;;;5.30;4.90;;;8.80;49.10;;;;;;10428644;28;20224;-71
2020/12/13 01:37:48;;;;;;;6.03;5.53;;;8.80;49.00;;;;;;10435722;28;20312;-70
2020/12/13 01:42:51;;;;;;;6.07;5.67;;;8.80;49.10;;;;;;10436285;28;20613;-70
2020/12/13 01:47:53;;;;;;;6.87;6.37;;;8.80;49.10;;;;;;10437663;28;20231;-70
2020/12/13 01:53:13;;;;;;;6.90;6.40;;;8.80;49.00;;;;;;10432602;28;20296;-70
2020/12/13 01:58:21;;;;;;;6.77;6.27;;;8.80;49.10;;;;;;10436534;28;20783;-70
2020/12/13 02:03:25;;;;;;;7.17;6.67;;;8.80;49.40;;;;;;10437366;28;20235;-70
2020/12/13 02:08:37;;;;;;;7.47;6.97;;;8.80;49.30;;;;;;10435574;28;20727;-70
2020/12/13 02:13:40;;;;;;;6.80;6.30;;;8.80;49.70;;;;;;10429758;28;20235;-70
2020/12/13 02:18:43;;;;;;;8.23;7.53;;;8.80;49.30;;;;;;10425147;28;20225;-70
2020/12/13 02:23:46;;;;;;;8.10;7.50;;;8.80;49.30;;;;;;10417985;28;20240;-70
2020/12/13 02:28:48;;;;;;;8.90;8.20;;;8.80;49.40;;;;;;10443425;28;20229;-70
2020/12/13 02:33:50;;;;;;;8.53;7.83;;;8.80;49.30;;;;;;10436472;28;20800;-70
2020/12/13 02:38:53;;;;;;;8.07;7.47;;;8.80;49.20;;;;;;10436680;28;20218;-70
2020/12/13 02:43:55;;;;;;;8.27;7.60;;;8.80;49.20;;;;;;10431743;28;20705;-70
2020/12/13 02:48:57;;;;;;;8.30;7.57;;;8.80;49.30;;;;;;10436670;28;20231;-70
2020/12/13 02:54:01;;;;;;;8.00;7.40;;;8.80;49.20;;;;;;10430009;28;20595;-70
2020/12/13 02:59:03;;;;;;;8.07;7.47;;;8.80;49.30;;;;;;10427132;28;20213;-70
2020/12/13 03:04:05;;;;;;;8.63;7.73;;;8.80;49.30;;;;;;10439566;28;20226;-70
2020/12/13 03:09:08;;;;;;;8.97;8.17;;;8.80;49.30;;;;;;10442821;28;20235;-71
2020/12/13 03:14:11;;;;;;;8.57;7.97;;;8.90;49.50;;;;;;10441118;28;20300;-70
2020/12/13 03:19:13;;;;;;;9.37;8.60;;;8.90;49.40;;;;;;10439919;28;20229;-70
2020/12/13 03:24:16;;;;;;;8.87;8.17;;;8.90;49.30;;;;;;10443050;28;20228;-70
2020/12/13 03:29:18;;;;;;;8.87;8.20;;;8.90;49.40;;;;;;10442021;28;20232;-70
2020/12/13 03:34:21;;;;;;;8.13;7.53;;;8.90;49.30;;;;;;10445934;28;20233;-70
2020/12/13 03:39:25;;;;;;;7.87;7.27;;;9.00;49.30;;;;;;10436134;28;20282;-70
2020/12/13 03:44:27;;;;;;;8.53;7.73;;;9.00;49.40;;;;;;10431861;28;20229;-70
2020/12/13 03:49:29;;;;;;;8.63;7.93;;;9.00;49.30;;;;;;10437152;28;20229;-70
2020/12/13 03:54:32;;;;;;;8.57;7.77;;;9.00;49.30;;;;;;10435830;28;20225;-70
2020/12/13 03:59:35;;;;;;;8.33;7.63;;;9.00;49.50;;;;;;10432726;28;20240;-70
2020/12/13 04:04:37;;;;;;;8.37;7.67;;;9.00;49.40;;;;;;10440067;28;20229;-70
2020/12/13 04:09:40;;;;;;;8.23;7.57;;;9.00;49.30;;;;;;10436572;28;20727;-70
2020/12/13 04:14:42;;;;;;;8.20;7.57;;;9.00;49.30;;;;;;10437202;28;20725;-70
2020/12/13 04:19:44;;;;;;;8.00;7.33;;;9.00;49.30;;;;;;10433853;28;20267;-70
2020/12/13 04:24:47;;;;;;;8.47;7.77;;;9.00;49.30;;;;;;10436856;28;20734;-70
2020/12/13 04:29:50;;;;;;;7.80;7.20;;;9.00;49.40;;;;;;10431826;28;20226;-70
2020/12/13 04:34:52;;;;;;;7.67;7.07;;;9.00;49.40;;;;;;10438181;28;20254;-70
2020/12/13 04:39:55;;;;;;;8.20;7.60;;;9.00;49.60;;;;;;10438448;28;20727;-70
2020/12/13 04:44:58;;;;;;;8.60;7.90;;;9.00;50.20;;;;;;10436667;28;20229;-70
2020/12/13 04:50:03;;;;;;;8.70;8.00;;;9.10;49.40;;;;;;10440532;28;20253;-70
2020/12/13 04:55:08;;;;;;;8.30;7.60;;;9.10;49.60;;;;;;10443302;28;20585;-70
2020/12/13 05:00:13;;;;;;;8.90;8.00;;;9.10;49.50;;;;;;10436930;28;20239;-70
2020/12/13 05:05:16;;;;;;;8.73;8.03;;;9.10;49.40;;;;;;10440276;28;20233;-70
2020/12/13 05:10:20;;;;;;;7.97;7.37;;;9.10;49.50;;;;;;10428026;28;20229;-70
2020/12/13 05:15:22;;;;;;;9.03;8.23;;;9.10;49.60;;;;;;10432498;28;20224;-70
2020/12/13 05:20:27;;;;;;;8.90;8.20;;;9.10;49.40;;;;;;10435879;28;20228;-70
2020/12/13 05:25:34;;;;;;;9.43;8.63;;;9.10;49.40;;;;;;10427224;28;20225;-70
2020/12/13 05:30:41;;;;;;;8.60;7.90;;;9.10;49.40;;;;;;10438899;28;20232;-70
2020/12/13 05:35:43;;;;;;;9.03;8.33;;;9.10;49.50;;;;;;10426527;28;20300;-70
2020/12/13 05:40:46;;;;;;;8.40;7.70;;;9.10;49.40;;;;;;10438472;28;20713;-70
2020/12/13 05:51:07;;;;;;;9.50;8.70;;;9.20;49.40;;;;;;10428850;28;20225;-70
2020/12/13 05:56:11;;;;;;;9.03;8.33;;;9.20;49.40;;;;;;10449301;28;20659;-70
2020/12/13 06:01:20;;;;;;;9.13;8.33;;;9.20;49.40;;;;;;10429630;28;20235;-70
2020/12/13 06:06:25;;;;;;;10.20;9.27;;;9.10;49.60;;;;;;10434781;28;20784;-70
2020/12/13 06:11:38;;;;;;;10.37;9.57;;;9.10;49.40;;;;;;10432006;28;20730;-70
2020/12/13 06:16:40;;;;;;;10.43;9.57;;;9.10;49.70;;;;;;10430991;28;20221;-70
2020/12/13 06:21:46;;;;;;;9.53;8.73;;;9.10;49.50;;;;;;10435027;28;20232;-74
2020/12/13 06:26:49;;;;;;;9.90;9.10;;;9.10;49.70;;;;;;10441814;28;20231;-70
2020/12/13 06:31:53;;;;;;;10.20;9.40;;;9.00;49.70;;;;;;10432436;28;20579;-70
2020/12/13 06:36:57;;;;;;;10.80;9.90;;;9.10;49.60;;;;;;10436634;28;20224;-74
2020/12/13 06:42:04;;;;;;;10.73;9.83;;;9.10;49.60;;;;;;10438176;28;20228;-74
2020/12/13 06:47:22;;;;;;;10.27;9.27;;;9.10;50.00;;;;;;10432179;28;20232;-73
2020/12/13 06:52:30;;;;;;;10.67;9.67;;;9.10;50.10;;;;;;10432775;28;20232;-74
2020/12/13 06:57:36;;;;;;;10.13;9.33;;;9.10;49.90;;;;;;10436917;28;20614;-74
2020/12/13 07:02:44;;;;;;;11.47;10.37;;;9.10;49.90;;;;;;10424145;28;20229;-74
2020/12/13 07:07:52;;;;;;;10.27;9.33;;;9.10;49.90;;;;;;10435805;28;20232;-74
2020/12/13 07:12:57;;;;;;;11.47;10.47;;;9.10;50.00;;;;;;10433348;28;20222;-74
2020/12/13 07:18:02;;;;;;;10.63;9.70;;;9.10;49.80;;;;;;10433505;28;20253;-74
2020/12/13 07:23:04;;;;;;;11.93;10.83;;;9.10;49.90;;;;;;10435078;28;20259;-73
2020/12/13 07:28:08;;;;;;;11.23;10.23;;;9.10;49.80;;;;;;10435805;28;20315;-73
2020/12/13 07:33:11;;;;;;;11.27;10.27;;;9.20;49.80;;;;;;10437836;28;20244;-73
2020/12/13 07:38:13;;;;;;;15.43;13.97;;;9.20;49.80;;;;;;10437021;28;20221;-74
2020/12/13 07:43:17;;;;;;;12.90;11.73;;;9.20;49.90;;;;;;10431673;28;20688;-74
2020/12/13 07:48:19;;;;;;;11.50;10.47;;;9.20;50.00;;;;;;10447715;28;20308;-70
2020/12/13 07:53:25;;;;;;;11.87;10.77;;;9.20;50.10;;;;;;10440058;28;20696;-70
2020/12/13 07:58:28;;;;;;;10.70;9.80;;;9.30;50.30;;;;;;10442234;28;20303;-73
2020/12/13 08:03:42;;;;;;;10.87;9.87;;;9.30;50.00;;;;;;10437005;28;20229;-71
2020/12/13 08:08:45;;;;;;;10.80;9.90;;;9.40;50.20;;;;;;10434496;28;20229;-71
2020/12/13 08:13:49;;;;;;;10.93;9.93;;;9.40;49.90;;;;;;10437624;28;20228;-72
2020/12/13 08:18:55;;;;;;;10.43;9.57;;;9.40;50.00;;;;;;10439199;28;20229;-72
2020/12/13 08:23:59;;;;;;;9.70;8.80;;;9.50;50.10;;;;;;10437971;28;20688;-70
2020/12/13 08:29:02;;;;;;;10.60;9.70;;;9.50;50.00;;;;;;10448304;28;20220;-72
2020/12/13 08:34:06;;;;;;;10.50;9.57;;;9.50;50.00;;;;;;10449333;28;20213;-70
2020/12/13 08:39:11;;;;;;;9.63;8.80;;;9.50;50.00;;;;;;10437031;28;20247;-70
2020/12/13 08:44:28;;;;;;;12.17;10.97;;;9.50;50.00;;;;;;10439428;28;20225;-72
2020/12/13 08:49:33;;;;;;;12.57;11.47;;;9.60;50.40;;;;;;10439986;28;20724;-72
2020/12/13 08:54:44;;;;;;;13.37;12.17;;;9.60;50.10;;;;;;10449117;28;20304;-70
2020/12/13 08:59:58;;;;;;;13.33;11.93;;;9.50;50.30;;;;;;10448441;28;20320;-74
2020/12/13 09:05:16;;;;;;;12.13;10.83;;;9.60;50.50;;;;;;10435673;28;20243;-69
2020/12/13 09:10:18;;;;;;;12.40;11.30;;;9.60;50.20;;;;;;10436534;28;20229;-70
2020/12/13 09:15:23;;;;;;;12.27;11.17;;;9.60;50.20;;;;;;10441833;28;20229;-72
2020/12/13 09:20:26;;;;;;;11.00;10.10;;;9.60;50.30;;;;;;10436151;28;20601;-70
2020/12/13 09:25:51;;;;;;;11.03;9.93;;;9.70;50.30;;;;;;10433116;28;20225;-70
2020/12/13 09:30:54;;;;;;;11.33;10.30;;;9.70;50.50;;;;;;10430744;28;20763;-71
2020/12/13 09:35:56;;;;;;;11.97;10.87;;;9.70;50.30;;;;;;10439674;28;20276;-73
2020/12/13 09:40:58;;;;;;;12.00;10.87;;;9.70;50.10;;;;;;10440080;28;20224;-72
2020/12/13 09:46:01;;;;;;;11.40;10.40;;;9.70;50.30;;;;;;10434673;28;20593;-68
2020/12/13 09:51:04;;;;;;;12.10;11.00;;;9.80;50.30;;;;;;10434770;28;20304;-69
2020/12/13 09:56:06;;;;;;;12.43;11.33;;;9.80;50.10;;;;;;10441603;28;20233;-71
2020/12/13 10:01:10;;;;;;;12.27;11.17;;;9.80;50.10;;;;;;10440814;28;20220;-71
2020/12/13 10:11:38;;;;;;;11.13;10.17;;;9.80;50.50;;;;;;10432490;28;20252;-68
2020/12/13 10:16:43;;;;;;;12.10;10.97;;;9.80;50.30;;;;;;10439832;28;20224;-69
2020/12/13 10:21:45;;;;;;;11.13;10.13;;;9.90;50.40;;;;;;10433001;28;20303;-69
2020/12/13 10:26:47;;;;;;;11.30;10.30;;;9.80;50.10;;;;;;10437371;28;20229;-69
2020/12/13 10:31:50;;;;;;;11.97;10.77;;;9.90;50.40;;;;;;10430071;28;20268;-72
2020/12/13 10:36:54;;;;;;;11.07;10.07;;;9.90;50.30;;;;;;10435551;28;20592;-72
2020/12/13 10:41:57;;;;;;;10.07;9.07;;;9.90;50.20;;;;;;10435183;28;20751;-72
2020/12/13 10:47:00;;;;;;;10.73;9.83;;;9.90;50.20;;;;;;10436091;28;20239;-73
2020/12/13 10:52:02;;;;;;;10.53;9.63;;;10.00;49.40;;;;;;10437372;28;20228;-72
2020/12/13 10:57:05;;;;;;;8.80;8.00;;;9.90;50.20;;;;;;10437469;28;20313;-72
2020/12/13 11:02:08;;;;;;;8.20;7.50;;;10.00;49.40;;;;;;10435811;28;20244;-69
2020/12/13 11:07:11;;;;;;;8.10;7.40;;;10.00;49.40;;;;;;10440106;28;20252;-71
2020/12/13 11:12:13;;;;;;;8.00;7.33;;;10.00;49.40;;;;;;10439289;28;20227;-72
2020/12/13 11:17:17;;;;;;;7.70;7.10;;;10.00;49.30;;;;;;10434495;28;20288;-69
2020/12/13 11:22:19;;;;;;;8.27;7.47;;;10.00;49.40;;;;;;10443980;28;20261;-69
2020/12/13 11:27:22;;;;;;;6.60;6.03;;;10.10;49.50;;;;;;10438588;28;20251;-73
2020/12/13 11:32:27;;;;;;;6.27;5.77;;;10.10;49.40;;;;;;10448129;28;20228;-71
2020/12/13 11:37:29;;;;;;;7.23;6.63;;;10.10;49.60;;;;;;10444250;28;20229;-69
2020/12/13 11:42:31;;;;;;;6.90;6.40;;;10.20;49.60;;;;;;10446144;28;20225;-69
2020/12/13 11:47:35;;;;;;;7.13;6.53;;;10.20;49.50;;;;;;10442392;28;20240;-69
2020/12/13 11:52:39;;;;;;;6.70;6.20;;;10.30;49.60;;;;;;10445968;28;20823;-69
2020/12/13 11:57:44;;;;;;;7.93;7.23;;;10.30;49.70;;;;;;10477525;22;20577;-85
2020/12/13 12:02:53;;;;;;;6.67;6.10;;;10.30;50.40;;;;;;10494334;28;20228;-85
2020/12/13 12:07:58;;;;;;;6.20;5.60;;;10.30;49.50;;;;;;10498202;28;20803;-86
2020/12/13 12:13:01;;;;;;;7.43;6.83;;;10.30;49.60;;;;;;10498278;28;20235;-85
2020/12/13 12:18:04;;;;;;;7.17;6.57;;;10.30;49.50;;;;;;10494414;28;20235;-85
2020/12/13 12:23:06;;;;;;;8.10;7.40;;;10.40;49.70;;;;;;10455975;28;20727;-86
2020/12/13 12:28:08;;;;;;;7.17;6.57;;;10.40;49.60;;;;;;10429211;23;20238;-75
2020/12/13 12:33:12;;;;;;;8.40;7.57;;;10.40;49.50;;;;;;10391687;28;20226;-75
2020/12/13 12:38:15;;;;;;;7.97;7.20;;;10.40;49.30;;;;;;10392275;28;20250;-75
2020/12/13 12:43:17;;;;;;;6.90;6.27;;;10.40;49.30;;;;;;10393877;28;20234;-75
2020/12/13 12:48:20;;;;;;;6.87;6.30;;;10.40;49.40;;;;;;10393771;28;20237;-75
2020/12/13 12:53:23;;;;;;;6.67;6.17;;;10.40;49.50;;;;;;10394613;28;20223;-75
2020/12/13 12:58:27;;;;;;;6.57;5.97;;;10.40;49.50;;;;;;10391075;28;20237;-75
2020/12/13 13:03:32;;;;;;;7.03;6.43;;;10.40;49.40;;;;;;10393380;28;20702;-74
2020/12/13 13:08:38;;;;;;;6.73;6.23;;;10.50;49.50;;;;;;10385587;28;20234;-74
2020/12/13 13:13:40;;;;;;;6.17;5.67;;;10.40;49.40;;;;;;10395287;28;20232;-74
2020/12/13 13:18:44;;;;;;;6.60;6.00;;;10.40;49.40;;;;;;10418595;28;20602;-74
2020/12/13 13:23:46;;;;;;;8.17;7.47;;;10.40;49.60;;;;;;10430527;28;20226;-75
2020/12/13 13:28:49;;;;;;;7.73;7.03;;;10.40;49.40;;;;;;10432453;28;20236;-78
2020/12/13 13:33:53;;;;;;;10.10;9.20;;;10.50;49.40;;;;;;10441433;28;21850;-78
2020/12/13 13:38:57;;;;;;;12.87;11.70;;;10.40;49.40;;;;;;10438104;28;20694;-78
2020/12/13 13:44:02;;;;;;;11.67;10.57;;;10.40;49.40;;;;;;10437694;28;20245;-78
2020/12/13 13:49:24;;;;;;;9.60;8.63;;;10.40;49.40;;;;;;10448724;28;20715;-79
2020/12/13 13:54:28;;;;;;;7.53;6.93;;;10.40;49.50;;;;;;10446916;28;20731;-78
2020/12/13 13:59:32;;;;;;;13.50;12.10;;;10.40;49.40;;;;;;10446374;28;20235;-79
2020/12/13 14:04:35;;;;;;;7.70;6.90;;;10.30;49.30;;;;;;10450129;28;20235;-78
2020/12/13 14:09:37;;;;;;;5.93;5.43;;;10.30;49.50;;;;;;10441024;28;20289;-78
2020/12/13 14:14:41;;;;;;;5.37;4.97;;;10.30;49.60;;;;;;10445808;28;20225;-78
2020/12/13 14:19:44;;;;;;;6.43;5.77;;;10.30;49.50;;;;;;10442923;28;20232;-78
2020/12/13 14:24:47;;;;;;;5.73;5.23;;;10.30;49.50;;;;;;10435798;28;20237;-78
2020/12/13 14:29:49;;;;;;;5.60;5.17;;;10.30;49.50;;;;;;10434708;28;20320;-78
2020/12/13 14:34:52;;;;;;;5.40;4.90;;;10.30;49.50;;;;;;10437650;28;20315;-78
2020/12/13 14:39:54;;;;;;;5.83;5.30;;;10.30;49.60;;;;;;10435706;28;20225;-78
2020/12/13 14:44:56;;;;;;;5.60;5.20;;;10.40;49.50;;;;;;10446978;28;20228;-78
2020/12/13 14:49:59;;;;;;;5.80;5.30;;;10.30;49.40;;;;;;10456072;28;20290;-78
2020/12/13 14:55:01;;;;;;;5.40;5.00;;;10.30;49.50;;;;;;10441936;28;20324;-78
2020/12/13 15:00:04;;;;;;;6.17;5.67;;;10.30;49.60;;;;;;10429816;28;20254;-76
2020/12/13 15:05:07;;;;;;;5.87;5.37;;;10.30;49.60;;;;;;10431147;28;20305;-76
2020/12/13 15:10:09;;;;;;;6.10;5.60;;;10.30;49.50;;;;;;10444577;28;20233;-76
2020/12/13 15:15:15;;;;;;;5.80;5.30;;;10.20;49.50;;;;;;10443270;28;20225;-76
2020/12/13 15:20:19;;;;;;;6.47;5.93;;;10.20;49.60;;;;;;10424638;28;20240;-76
2020/12/13 15:25:21;;;;;;;5.37;4.97;;;10.20;49.70;;;;;;10442039;28;20238;-76
2020/12/13 15:30:23;;;;;;;6.30;5.80;;;10.20;49.70;;;;;;10440868;28;20229;-76
2020/12/13 15:35:26;;;;;;;6.70;6.20;;;10.20;49.70;;;;;;10447228;28;20233;-77
2020/12/13 15:40:28;;;;;;;6.90;6.23;;;10.20;49.70;;;;;;10432451;28;20230;-77
2020/12/13 15:45:30;;;;;;;6.03;5.53;;;10.20;49.70;;;;;;10448022;28;20228;-76
2020/12/13 15:50:42;;;;;;;6.20;5.60;;;10.20;49.70;;;;;;10427828;28;20223;-77
2020/12/13 15:55:46;;;;;;;5.43;5.03;;;10.20;49.70;;;;;;10436714;28;20697;-77
2020/12/13 16:00:49;;;;;;;5.70;5.27;;;10.20;49.50;;;;;;10432374;28;20636;-76
2020/12/13 16:05:56;;;;;;;5.73;5.23;;;10.20;49.40;;;;;;10438558;28;20217;-76
2020/12/13 16:10:58;;;;;;;5.77;5.27;;;10.20;49.50;;;;;;10423173;28;20588;-76
2020/12/13 16:16:00;;;;;;;5.43;5.00;;;10.20;49.20;;;;;;10424835;28;20228;-76
2020/12/13 16:21:04;;;;;;;5.50;5.00;;;10.20;49.00;;;;;;10434931;28;20608;-76
2020/12/13 16:26:06;;;;;;;5.80;5.30;;;10.20;49.10;;;;;;10426715;28;20309;-76
2020/12/13 16:31:08;;;;;;;6.30;5.57;;;10.10;48.90;;;;;;10427924;28;20222;-76
2020/12/13 16:36:12;;;;;;;5.43;4.93;;;10.10;49.00;;;;;;10433928;28;20230;-76
2020/12/13 16:41:19;;;;;;;5.60;5.10;;;10.00;49.10;;;;;;10425224;28;20218;-77
2020/12/13 16:46:24;;;;;;;5.47;4.97;;;10.00;49.00;;;;;;10427118;28;20697;-77
2020/12/13 16:51:41;;;;;;;5.30;4.90;;;10.00;49.00;;;;;;10441188;28;20229;-77
2020/12/13 16:56:44;;;;;;;5.80;5.30;;;10.00;48.90;;;;;;10432188;28;20230;-76
2020/12/13 17:01:47;;;;;;;6.30;5.70;;;10.00;48.90;;;;;;10424385;28;20225;-76
2020/12/13 17:06:50;;;;;;;6.53;5.93;;;10.00;48.90;;;;;;10423674;28;20253;-76
2020/12/13 17:11:52;;;;;;;8.00;7.27;;;10.00;49.00;;;;;;10416615;28;20232;-76
2020/12/13 17:16:55;;;;;;;9.30;8.50;;;10.10;49.00;;;;;;10426026;28;20228;-76
2020/12/13 17:21:58;;;;;;;11.03;8.93;;;10.10;49.00;;;;;;10442902;28;20240;-76
2020/12/13 17:27:00;;;;;;;8.20;7.37;;;10.00;49.10;;;;;;10424030;28;20232;-76
2020/12/13 17:32:02;;;;;;;8.53;7.50;;;10.10;49.10;;;;;;10439723;28;20308;-76
2020/12/13 17:37:09;;;;;;;7.80;7.10;;;10.10;49.20;;;;;;10432751;28;20320;-76
2020/12/13 17:42:12;;;;;;;12.90;11.60;;;10.10;49.30;;;;;;10434336;28;20275;-76
2020/12/13 17:47:18;;;;;;;12.43;11.20;;;10.10;49.20;;;;;;10424998;28;20220;-76
2020/12/13 17:52:31;;;;;;;13.47;12.10;;;10.10;49.20;;;;;;10435805;28;20308;-76
2020/12/13 17:57:35;;;;;;;12.83;11.53;;;10.10;49.00;;;;;;10422910;28;20221;-76
2020/12/13 18:02:41;;;;;;;13.43;12.03;;;10.10;49.70;;;;;;10422983;28;20229;-76
2020/12/13 18:07:44;;;;;;;12.83;11.63;;;10.10;48.80;;;;;;10429593;28;20608;-76
2020/12/13 18:12:49;;;;;;;11.77;10.70;;;10.10;48.80;;;;;;10432987;28;20605;-76
2020/12/13 18:17:52;;;;;;;12.43;11.33;;;10.10;49.40;;;;;;10427285;28;20231;-76
2020/12/13 18:22:55;;;;;;;13.23;12.03;;;10.10;48.60;;;;;;10446931;28;20304;-76
2020/12/13 18:27:57;;;;;;;14.90;13.60;;;10.10;48.60;;;;;;10416903;28;20613;-77
2020/12/13 18:33:00;;;;;;;14.00;12.50;;;10.00;48.40;;;;;;10436447;28;20331;-77
2020/12/13 18:38:03;;;;;;;12.73;10.87;;;10.00;48.60;;;;;;10435500;28;20689;-78
2020/12/13 18:43:06;;;;;;;11.77;10.77;;;9.90;49.80;;;;;;10434669;28;20221;-77
2020/12/13 18:48:08;;;;;;;11.73;10.53;;;9.80;49.80;;;;;;10431376;28;20248;-78
2020/12/13 18:53:12;;;;;;;11.40;10.30;;;9.80;49.90;;;;;;10436361;28;20222;-78
2020/12/13 18:58:14;;;;;;;11.50;10.30;;;9.80;49.90;;;;;;10424555;28;20320;-78
2020/12/13 19:03:45;;;;;;;10.47;9.40;;;9.80;50.00;;;;;;10423982;28;20236;-77
2020/12/13 19:08:48;;;;;;;11.37;9.37;;;9.80;50.10;;;;;;10422055;28;20245;-77
2020/12/13 19:13:50;;;;;;;10.20;9.30;;;9.80;50.10;;;;;;10420138;28;20731;-77
2020/12/13 19:18:52;;;;;;;10.00;9.07;;;9.80;50.10;;;;;;10430694;28;20235;-78
2020/12/13 19:23:55;;;;;;;10.80;9.73;;;9.90;50.10;;;;;;10432240;28;20315;-77
2020/12/13 19:28:58;;;;;;;11.63;9.43;;;10.00;49.20;;;;;;10438169;28;20224;-78
2020/12/13 19:34:00;;;;;;;12.10;10.90;;;10.00;49.10;;;;;;10425830;28;20214;-78
2020/12/13 19:39:03;;;;;;;11.43;10.40;;;10.10;49.00;;;;;;10424280;28;20228;-77
2020/12/13 19:44:05;;;;;;;12.10;10.87;;;10.10;49.00;;;;;;10427314;28;20309;-77
2020/12/13 19:49:08;;;;;;;11.80;10.80;;;10.10;48.80;;;;;;10439729;28;20233;-78
2020/12/13 19:54:11;;;;;;;8.33;7.63;;;10.10;48.70;;;;;;10441716;28;20233;-77
2020/12/13 19:59:13;;;;;;;10.50;9.60;;;10.20;49.90;;;;;;10434059;28;20229;-77
2020/12/13 20:04:16;;;;;;;9.50;8.60;;;10.20;49.50;;;;;;10437680;28;20217;-77
2020/12/13 20:09:19;;;;;;;13.20;11.70;;;10.30;49.40;;;;;;10438656;28;20293;-78
2020/12/13 20:14:35;;;;;;;11.73;10.70;;;10.30;48.90;;;;;;10439279;28;20240;-77
2020/12/13 21:18:53;;;;;;;9.07;8.20;;;10.10;48.30;;;;;;10370631;28;20242;-77
2020/12/13 21:24:21;;;;;;;9.50;8.60;;;10.00;48.20;;;;;;10418165;28;20220;-77
2020/12/13 21:40:36;;;;;;;8.47;7.77;;;10.00;48.10;;;;;;10346802;28;20232;-76
2020/12/13 21:45:41;;;;;;;7.87;7.17;;;10.00;48.00;;;;;;10425338;28;20732;-76
2020/12/13 21:56:26;;;;;;;8.83;8.13;;;10.00;48.10;;;;;;10420839;28;20214;-77
2020/12/13 22:07:41;;;;;;;9.97;9.07;;;9.90;48.40;;;;;;10408086;28;20236;-77
2020/12/13 22:28:30;;;;;;;10.80;9.90;;;9.70;48.60;;;;;;10420730;28;20294;-77
2020/12/13 22:33:33;;;;;;;9.40;8.60;;;9.60;48.30;;;;;;10417327;28;20217;-77
2020/12/13 22:38:36;;;;;;;10.00;9.20;;;9.60;48.10;;;;;;10424089;28;20249;-77
2020/12/13 22:43:38;;;;;;;8.07;7.40;;;9.60;48.00;;;;;;10417801;28;20312;-77
2020/12/13 22:48:41;;;;;;;9.97;9.07;;;9.50;48.70;;;;;;10441632;28;20611;-76
2020/12/13 22:53:43;;;;;;;11.23;10.13;;;9.50;47.70;;;;;;10423364;28;20225;-77
2020/12/13 22:58:46;;;;;;;10.57;9.57;;;9.40;47.50;;;;;;10420184;28;20236;-76
2020/12/13 23:03:49;;;;;;;11.47;10.43;;;9.30;47.70;;;;;;10420353;28;20617;-77
2020/12/13 23:08:51;;;;;;;11.07;10.10;;;9.20;47.70;;;;;;10420839;28;20810;-77
2020/12/13 23:13:53;;;;;;;9.63;8.83;;;9.20;47.90;;;;;;10419650;28;20221;-77
2020/12/13 23:18:56;;;;;;;10.57;9.57;;;9.10;47.80;;;;;;10428307;28;20229;-77
2020/12/13 23:23:59;;;;;;;9.70;8.90;;;9.10;47.70;;;;;;10433656;28;20249;-77
2020/12/13 23:29:01;;;;;;;8.30;7.60;;;9.10;48.00;;;;;;10426840;28;20610;-77
2020/12/13 23:34:05;;;;;;;8.83;8.13;;;9.00;47.80;;;;;;10430201;28;20584;-77
2020/12/13 23:39:08;;;;;;;10.20;9.30;;;9.00;47.90;;;;;;10425674;28;20316;-77
2020/12/13 23:44:10;;;;;;;8.90;8.10;;;8.90;48.10;;;;;;10424455;28;20225;-77
2020/12/13 23:49:13;;;;;;;8.10;7.40;;;8.90;47.80;;;;;;10431868;28;20233;-77
2020/12/13 23:54:15;;;;;;;11.37;8.37;;;8.90;47.60;;;;;;10425450;28;20239;-77
2020/12/13 23:59:18;;;;;;;7.70;6.93;;;8.80;47.60;;;;;;10424270;28;20237;-77
